Time;durP1;ratioP1;P1;durP2;ratioP2;P2;SDS_P1;SDS_P2;PMS_P1;PMS_P2;Temp;Humidity;BMP_temperature;BMP_pressure;BME280_temperature;BME280_humidity;BME280_pressure;Samples;Min_cycle;Max_cycle;Signal;HPM_P1;HPM_P2
2022/12/11 00:03:13;;;;;;;67.30;31.05;;;1.80;99.90;;;;;;20660891;28;20152;-41
2022/12/11 00:13:14;;;;;;;53.25;26.42;;;1.80;99.90;;;;;;20694427;28;20187;-41
2022/12/11 00:23:15;;;;;;;50.28;22.17;;;1.90;99.90;;;;;;20693491;28;20100;-42
2022/12/11 00:33:16;;;;;;;51.67;25.85;;;1.90;99.90;;;;;;20654951;28;1085279;-42
2022/12/11 00:43:17;;;;;;;62.08;29.10;;;1.90;99.90;;;;;;20713142;28;20505;-42
2022/12/11 00:53:18;;;;;;;40.53;22.50;;;2.00;99.90;;;;;;20718327;28;20505;-42
2022/12/11 01:03:19;;;;;;;42.67;21.17;;;2.00;99.90;;;;;;20699649;28;20181;-42
2022/12/11 01:13:20;;;;;;;36.55;19.30;;;2.20;99.90;;;;;;20681023;28;20074;-43
2022/12/11 01:23:21;;;;;;;56.78;24.20;;;2.00;99.90;;;;;;20648460;28;20164;-42
2022/12/11 01:33:22;;;;;;;45.45;22.83;;;2.10;99.90;;;;;;20643473;28;20050;-42
2022/12/11 01:43:23;;;;;;;42.53;20.83;;;2.10;99.90;;;;;;20662111;28;20045;-42
2022/12/11 01:53:36;;;;;;;36.70;20.27;;;2.10;99.90;;;;;;20655857;28;20121;-42
2022/12/11 02:03:37;;;;;;;42.58;19.80;;;2.10;99.90;;;;;;20650445;28;20125;-42
2022/12/11 02:13:48;;;;;;;27.35;15.63;;;2.10;99.90;;;;;;20639641;28;20080;-42
2022/12/11 02:24:13;;;;;;;28.30;15.90;;;2.20;99.90;;;;;;20654956;28;20840;-42
2022/12/11 02:34:25;;;;;;;28.20;15.90;;;2.20;99.90;;;;;;20678533;28;20949;-42
2022/12/11 02:44:32;;;;;;;22.50;13.20;;;2.30;99.90;;;;;;20684107;28;20108;-42
2022/12/11 02:54:35;;;;;;;;;;;2.20;99.90;;;;;;20679603;28;20069;-42
2022/12/11 03:04:36;;;;;;;20.70;10.43;;;2.20;99.90;;;;;;20669997;28;20011;-42
2022/12/11 03:14:39;;;;;;;18.60;11.43;;;2.30;99.90;;;;;;20673423;28;20069;-42
2022/12/11 03:24:49;;;;;;;18.98;12.07;;;2.30;99.90;;;;;;20667065;28;20065;-43
2022/12/11 03:35:00;;;;;;;26.88;12.77;;;2.20;99.90;;;;;;21234536;23;20688;-79
2022/12/11 03:45:07;;;;;;;13.90;8.07;;;2.20;99.90;;;;;;20762114;28;20460;-79
2022/12/11 03:55:16;;;;;;;17.48;8.55;;;2.30;99.90;;;;;;20761260;28;20493;-79
2022/12/11 04:05:22;;;;;;;24.58;11.73;;;2.20;99.90;;;;;;20746359;28;20030;-79
2022/12/11 04:15:23;;;;;;;16.35;10.27;;;2.20;99.90;;;;;;20746456;28;20034;-79
2022/12/11 04:25:28;;;;;;;14.52;8.13;;;2.20;99.90;;;;;;20743703;28;20037;-79
2022/12/11 04:35:30;;;;;;;23.05;11.35;;;2.20;99.90;;;;;;20773550;28;20049;-79
2022/12/11 04:45:32;;;;;;;19.00;11.07;;;2.10;99.90;;;;;;20712822;28;20038;-79
2022/12/11 04:55:34;;;;;;;35.47;12.48;;;2.10;99.90;;;;;;20732688;28;20369;-79
2022/12/11 05:05:39;;;;;;;19.08;10.88;;;2.10;99.90;;;;;;20729766;28;20026;-79
2022/12/11 05:15:43;;;;;;;19.70;11.23;;;2.00;99.90;;;;;;20783371;28;20049;-79
2022/12/11 05:25:51;;;;;;;20.00;12.07;;;2.00;99.90;;;;;;20768473;28;20479;-79
2022/12/11 05:35:53;;;;;;;16.77;10.27;;;2.00;99.90;;;;;;20800231;28;20492;-79
2022/12/11 05:46:06;;;;;;;17.73;9.75;;;1.90;99.90;;;;;;20857832;28;20080;-79
2022/12/11 05:56:11;;;;;;;16.98;9.80;;;1.90;99.90;;;;;;20805734;28;20531;-79
2022/12/11 06:06:15;;;;;;;19.65;12.40;;;1.90;99.90;;;;;;20815117;28;20045;-79
2022/12/11 06:16:21;;;;;;;20.63;10.67;;;1.90;99.90;;;;;;20747917;28;20041;-79
2022/12/11 06:26:23;;;;;;;19.17;11.45;;;1.90;99.90;;;;;;20847420;28;20041;-79
2022/12/11 06:36:27;;;;;;;22.10;10.63;;;1.90;99.90;;;;;;20863196;28;20175;-79
2022/12/11 06:46:28;;;;;;;23.40;11.15;;;1.90;99.90;;;;;;20838221;28;20049;-79
2022/12/11 06:56:29;;;;;;;22.25;11.27;;;1.90;99.90;;;;;;20835114;28;20034;-79
2022/12/11 07:06:33;;;;;;;15.50;8.40;;;1.90;99.90;;;;;;20843845;28;20035;-79
2022/12/11 07:16:38;;;;;;;21.20;11.80;;;1.90;99.90;;;;;;20823614;28;20037;-79
2022/12/11 07:26:39;;;;;;;24.27;10.48;;;1.90;99.90;;;;;;20815618;28;20037;-79
2022/12/11 07:36:42;;;;;;;27.85;12.95;;;1.80;99.90;;;;;;20846919;28;20088;-79
2022/12/11 07:46:43;;;;;;;21.23;8.68;;;1.80;99.90;;;;;;20769115;28;20488;-79
2022/12/11 07:56:56;;;;;;;20.30;11.15;;;1.80;99.90;;;;;;20756546;28;20045;-81
2022/12/11 08:07:28;;;;;;;19.30;10.70;;;1.80;99.90;;;;;;20778458;28;20033;-79
2022/12/11 08:17:30;;;;;;;21.55;11.73;;;1.70;99.90;;;;;;20810812;28;20034;-77
2022/12/11 08:27:35;;;;;;;18.67;9.40;;;1.70;99.90;;;;;;20797336;28;20046;-80
2022/12/11 08:37:37;;;;;;;15.27;9.63;;;1.80;99.90;;;;;;20584261;23;20245;-39
2022/12/11 08:47:37;;;;;;;19.40;8.32;;;1.80;99.90;;;;;;20344835;28;20131;-39
2022/12/11 08:57:39;;;;;;;17.77;10.48;;;1.80;99.90;;;;;;20344931;28;20082;-39
2022/12/11 09:07:40;;;;;;;14.40;9.48;;;1.80;99.90;;;;;;20345274;28;20511;-39
2022/12/11 09:17:41;;;;;;;13.57;6.88;;;1.90;99.90;;;;;;20332605;28;20470;-39
2022/12/11 09:27:42;;;;;;;16.27;10.65;;;1.90;99.90;;;;;;20330164;28;20206;-39
2022/12/11 09:37:43;;;;;;;16.05;9.05;;;2.10;99.90;;;;;;20335486;28;20473;-39
2022/12/11 09:47:53;;;;;;;23.02;9.95;;;2.00;99.90;;;;;;20319204;28;20499;-39
2022/12/11 09:58:22;;;;;;;25.88;11.32;;;2.00;99.90;;;;;;20302857;28;21738;-39
2022/12/11 10:08:35;;;;;;;19.45;11.57;;;2.10;99.90;;;;;;20303615;28;20863;-39
2022/12/11 10:18:37;;;;;;;25.10;10.98;;;2.00;99.90;;;;;;20295697;28;20054;-39
2022/12/11 10:28:38;;;;;;;16.85;9.05;;;2.20;99.90;;;;;;20324444;28;20051;-39
2022/12/11 10:38:45;;;;;;;16.95;9.00;;;2.30;99.90;;;;;;20335942;28;20075;-39
2022/12/11 10:48:54;;;;;;;26.17;10.32;;;2.30;99.90;;;;;;20323924;28;20518;-39
2022/12/11 10:58:57;;;;;;;23.23;9.35;;;2.40;99.90;;;;;;20333673;28;20726;-39
2022/12/11 11:09:00;;;;;;;18.23;10.25;;;2.40;99.90;;;;;;20330052;28;20742;-39
2022/12/11 11:19:01;;;;;;;17.95;8.82;;;2.30;99.90;;;;;;20353727;28;20063;-40
2022/12/11 11:29:02;;;;;;;14.02;8.50;;;2.40;99.90;;;;;;20359183;28;20063;-40
2022/12/11 11:39:22;;;;;;;20.95;10.35;;;2.50;99.90;;;;;;20373610;28;20110;-40
2022/12/11 11:50:00;;;;;;;17.77;9.15;;;2.60;99.90;;;;;;20375650;28;20197;-39
2022/12/11 12:00:09;;;;;;;17.55;8.98;;;2.40;99.90;;;;;;20348560;28;20243;-39
2022/12/11 12:10:46;;;;;;;18.65;9.63;;;2.50;99.90;;;;;;20346558;28;20547;-40
2022/12/11 12:21:08;;;;;;;22.65;10.90;;;2.60;99.90;;;;;;20344512;28;21819;-39
2022/12/11 12:31:31;;;;;;;19.10;10.23;;;2.70;99.90;;;;;;20342170;28;20282;-40
2022/12/11 12:41:59;;;;;;;27.17;12.70;;;2.70;99.90;;;;;;20347290;28;20138;-40
2022/12/11 12:52:02;;;;;;;17.65;10.23;;;2.60;99.90;;;;;;20349207;28;20273;-39
2022/12/11 13:02:05;;;;;;;24.88;11.55;;;2.70;99.90;;;;;;20374801;28;20451;-39
2022/12/11 13:12:15;;;;;;;19.40;12.30;;;2.70;99.90;;;;;;20359962;28;20111;-40
2022/12/11 13:22:15;;;;;;;25.05;11.55;;;2.70;99.90;;;;;;20357746;28;20580;-40
2022/12/11 13:32:16;;;;;;;24.95;11.30;;;2.60;99.90;;;;;;20356652;28;20052;-39
2022/12/11 13:42:59;;;;;;;19.33;11.55;;;2.50;99.90;;;;;;20369995;28;20164;-40
2022/12/11 13:53:01;;;;;;;23.05;10.80;;;2.50;99.90;;;;;;20361915;28;20427;-39
2022/12/11 14:03:08;;;;;;;15.25;10.60;;;2.50;99.90;;;;;;20347343;28;20437;-40
2022/12/11 14:13:23;;;;;;;18.47;9.83;;;2.50;99.90;;;;;;20349944;28;20088;-39
2022/12/11 14:23:30;;;;;;;22.45;11.70;;;2.40;99.90;;;;;;20325779;28;20912;-39
2022/12/11 14:33:35;;;;;;;20.88;10.38;;;2.40;99.90;;;;;;20322026;28;20134;-39
2022/12/11 14:43:42;;;;;;;31.00;17.52;;;2.40;99.90;;;;;;20322675;28;20051;-39
2022/12/11 14:53:47;;;;;;;18.48;11.32;;;2.30;99.90;;;;;;20308794;28;20114;-39
2022/12/11 15:03:48;;;;;;;21.23;10.40;;;2.40;99.90;;;;;;20300692;28;21735;-40
2022/12/11 15:13:58;;;;;;;21.58;10.57;;;2.40;99.90;;;;;;20316791;28;20059;-40
2022/12/11 15:24:02;;;;;;;17.40;8.98;;;2.40;99.90;;;;;;20307161;28;20876;-39
2022/12/11 15:34:19;;;;;;;17.48;10.10;;;2.40;99.90;;;;;;20318485;28;20066;-40
2022/12/11 15:44:22;;;;;;;29.15;12.07;;;2.50;99.90;;;;;;20312297;28;20098;-39
2022/12/11 15:54:23;;;;;;;16.55;9.57;;;2.40;99.90;;;;;;20325248;28;20163;-40
2022/12/11 16:04:24;;;;;;;19.00;9.32;;;2.50;99.90;;;;;;20324534;28;20159;-39
2022/12/11 16:14:25;;;;;;;19.48;10.70;;;2.50;99.90;;;;;;20324165;28;20739;-40
2022/12/11 16:24:26;;;;;;;26.25;13.68;;;2.40;99.90;;;;;;20336520;28;20546;-39
2022/12/11 16:34:27;;;;;;;17.27;9.68;;;2.40;99.90;;;;;;20342686;28;20163;-40
2022/12/11 16:44:28;;;;;;;27.67;10.60;;;2.30;99.90;;;;;;20335505;28;20122;-39
2022/12/11 16:54:29;;;;;;;31.35;15.35;;;2.40;99.90;;;;;;20357349;28;20047;-39
2022/12/11 17:04:31;;;;;;;22.77;11.77;;;2.30;99.90;;;;;;20362536;28;20050;-40
2022/12/11 17:14:32;;;;;;;17.90;9.88;;;2.30;99.90;;;;;;20342044;28;20162;-40
2022/12/11 17:24:33;;;;;;;47.78;24.40;;;2.20;99.90;;;;;;20334963;28;20047;-39
2022/12/11 17:34:34;;;;;;;13.82;7.82;;;2.30;99.90;;;;;;20324481;28;20059;-39
2022/12/11 17:44:35;;;;;;;23.33;10.88;;;2.10;99.90;;;;;;20336679;28;20159;-39
2022/12/11 17:54:38;;;;;;;14.52;8.52;;;2.10;99.90;;;;;;20336639;28;20123;-39
2022/12/11 18:04:39;;;;;;;17.75;10.38;;;2.00;99.90;;;;;;20335724;28;20043;-40
2022/12/11 18:14:40;;;;;;;16.92;9.02;;;2.10;99.90;;;;;;20321971;28;20323;-39
2022/12/11 18:24:41;;;;;;;26.90;10.13;;;2.10;99.90;;;;;;20334159;28;20143;-39
2022/12/11 18:34:42;;;;;;;15.73;8.10;;;2.00;99.90;;;;;;20288792;28;20784;-40
2022/12/11 18:44:44;;;;;;;16.67;8.35;;;2.00;99.90;;;;;;20444137;28;20520;-40
2022/12/11 18:54:46;;;;;;;17.08;8.35;;;1.90;99.90;;;;;;20447656;28;20043;-40
2022/12/11 19:04:47;;;;;;;22.15;9.45;;;1.90;99.90;;;;;;20461599;28;20046;-39
2022/12/11 19:14:48;;;;;;;17.08;8.40;;;1.90;99.90;;;;;;20434781;28;20966;-40
2022/12/11 19:24:49;;;;;;;20.35;10.80;;;1.90;99.90;;;;;;20438352;28;20035;-40
2022/12/11 19:34:54;;;;;;;16.80;6.97;;;2.00;99.90;;;;;;20432941;28;20643;-39
2022/12/11 19:44:55;;;;;;;15.93;7.60;;;1.90;99.90;;;;;;20382006;28;20059;-39
2022/12/11 19:55:00;;;;;;;16.80;9.00;;;1.90;99.90;;;;;;20396677;28;20373;-40
2022/12/11 20:05:02;;;;;;;15.30;7.97;;;2.00;99.90;;;;;;20401870;28;20199;-39
2022/12/11 20:15:04;;;;;;;14.70;7.68;;;1.90;99.90;;;;;;20389361;28;20058;-40
2022/12/11 20:25:06;;;;;;;16.90;9.48;;;1.90;99.90;;;;;;20400705;28;20106;-39
2022/12/11 20:35:11;;;;;;;15.63;7.75;;;1.90;99.90;;;;;;20422157;28;20219;-40
2022/12/11 20:45:12;;;;;;;15.98;8.07;;;1.80;99.90;;;;;;20491593;28;20629;-39
2022/12/11 20:55:13;;;;;;;16.20;7.97;;;1.80;99.90;;;;;;20489155;28;20797;-39
2022/12/11 21:05:14;;;;;;;16.77;7.22;;;1.80;99.90;;;;;;20471620;28;20063;-40
2022/12/11 21:15:15;;;;;;;12.95;7.35;;;1.80;99.90;;;;;;20468894;28;20511;-39
2022/12/11 21:25:16;;;;;;;13.02;6.80;;;1.80;99.90;;;;;;20474564;28;20113;-40
2022/12/11 21:35:20;;;;;;;11.85;5.63;;;1.90;99.90;;;;;;20502490;28;20302;-40
2022/12/11 21:45:21;;;;;;;11.05;7.53;;;1.90;99.90;;;;;;20501791;28;20377;-40
2022/12/11 21:55:23;;;;;;;12.80;6.22;;;1.90;99.90;;;;;;20512194;28;20137;-40
2022/12/11 22:05:24;;;;;;;11.35;5.20;;;1.70;99.90;;;;;;20481614;28;20125;-39
2022/12/11 22:15:25;;;;;;;9.63;7.45;;;1.80;99.90;;;;;;20497555;28;20125;-39
2022/12/11 22:25:26;;;;;;;14.75;6.93;;;1.80;99.90;;;;;;20505439;28;20141;-39
2022/12/11 22:35:27;;;;;;;15.93;7.32;;;1.60;99.90;;;;;;20507891;28;20039;-40
2022/12/11 22:45:28;;;;;;;15.18;7.85;;;1.70;99.90;;;;;;20492243;28;20090;-39
2022/12/11 22:55:29;;;;;;;19.50;8.02;;;1.60;99.90;;;;;;20486519;28;20288;-39
2022/12/11 23:05:30;;;;;;;15.57;7.03;;;1.50;99.90;;;;;;20491304;28;20118;-39
2022/12/11 23:15:31;;;;;;;11.38;5.90;;;1.50;99.90;;;;;;20466976;28;20503;-39
2022/12/11 23:25:32;;;;;;;11.43;5.78;;;1.60;99.90;;;;;;20453062;28;20172;-39
2022/12/11 23:35:33;;;;;;;15.27;6.75;;;1.60;99.90;;;;;;20498160;28;20137;-39
2022/12/11 23:45:34;;;;;;;11.93;6.93;;;1.60;99.90;;;;;;20496947;28;20084;-40
2022/12/11 23:55:38;;;;;;;12.27;6.90;;;1.60;99.90;;;;;;20480609;28;20081;-39
